Andesborg — PCLC — position and weather

sailwx.info

Track history (hours):
 
Tides and Currents Weather Stations Pressure Air Temp Water Temp Dewpoint Dewpoint Depression Visibility Wind Speed Wind Dir Waves Ship Positions

Andesborg

Last reported at 2015-Jun-10 17:08 UTC. Time now 2015-Jul-06 15:39 UTC.
Position N 36°35' W 029°45'.
Warning: this ship's position is 25 days out of date.

Length 142 m; draft 8.9 m.

Type: Ship. MMSI: 246797000.

Date/timePositionNaut miles runAvg speedWind from/ knotsBaromVisibWave heightAir tempDewpointWater temp
2015-Jun-10 17:08N 36°35' W 029°45'2713.5
2015-Jun-10 15:07N 36°43' W 029°13'11313.1
2015-Jun-10 06:33N 37°15' W 026°57'1312.6
2015-Jun-10 05:33N 37°19' W 026°42'1312.8
2015-Jun-10 04:33N 37°22' W 026°27'1313.4
2015-Jun-10 03:33N 37°25' W 026°10'1313.2
2015-Jun-10 02:33N 37°29' W 025°54'1313.0
2015-Jun-10 01:33N 37°32' W 025°38'1313.1
2015-Jun-10 00:33N 37°35' W 025°22'1312.9
2015-Jun-09 23:33N 37°38' W 025°06'1313.2
2015-Jun-09 22:34N 37°43' W 024°51'1313.5
2015-Jun-09 21:33N 37°48' W 024°35'1313.1
2015-Jun-09 20:33N 37°53' W 024°20'1312.9
2015-Jun-09 19:34N 37°57' W 024°04'1313.1
2015-Jun-09 18:33N 38°02' W 023°49'  
2015-Jun-06 04:31N 43°49' W 005°49'1212.6
2015-Jun-06 03:33N 43°48' W 005°32'1312.8
2015-Jun-06 02:31N 43°46' W 005°14'1212.6
2015-Jun-06 01:33N 43°45' W 004°58'  
2015-Jun-03 07:06N 43°42' W 004°48'611.9
2015-Jun-03 06:34N 43°43' W 004°57'1312.1
2015-Jun-03 05:31N 43°45' W 005°14'1212.2
2015-Jun-03 04:31N 43°47' W 005°31'1212.4
2015-Jun-03 03:34N 43°48' W 005°47'1312.1
2015-Jun-03 02:28N 43°48' W 006°05'  
Track history (hours):
 
Tides and Currents Weather Stations Pressure Air Temp Water Temp Dewpoint Dewpoint Depression Visibility Wind Speed Wind Dir Waves Ship Positions

Andesborg

Last reported at 2015-Jun-10 17:08 UTC. Time now 2015-Jul-06 15:39 UTC.
Position N 36°35' W 029°45'.
Warning: this ship's position is 25 days out of date.

Length 142 m; draft 8.9 m.

Type: Ship. MMSI: 246797000.

Date/timePositionNaut miles runAvg speedWind from/ knotsBaromVisibWave heightAir tempDewpointWater temp
2015-Jun-10 17:08N 36°35' W 029°45'2713.5
2015-Jun-10 15:07N 36°43' W 029°13'11313.1
2015-Jun-10 06:33N 37°15' W 026°57'1312.6
2015-Jun-10 05:33N 37°19' W 026°42'1312.8
2015-Jun-10 04:33N 37°22' W 026°27'1313.4
2015-Jun-10 03:33N 37°25' W 026°10'1313.2
2015-Jun-10 02:33N 37°29' W 025°54'1313.0
2015-Jun-10 01:33N 37°32' W 025°38'1313.1
2015-Jun-10 00:33N 37°35' W 025°22'1312.9
2015-Jun-09 23:33N 37°38' W 025°06'1313.2
2015-Jun-09 22:34N 37°43' W 024°51'1313.5
2015-Jun-09 21:33N 37°48' W 024°35'1313.1
2015-Jun-09 20:33N 37°53' W 024°20'1312.9
2015-Jun-09 19:34N 37°57' W 024°04'1313.1
2015-Jun-09 18:33N 38°02' W 023°49'  
2015-Jun-06 04:31N 43°49' W 005°49'1212.6
2015-Jun-06 03:33N 43°48' W 005°32'1312.8
2015-Jun-06 02:31N 43°46' W 005°14'1212.6
2015-Jun-06 01:33N 43°45' W 004°58'  
2015-Jun-03 07:06N 43°42' W 004°48'611.9
2015-Jun-03 06:34N 43°43' W 004°57'1312.1
2015-Jun-03 05:31N 43°45' W 005°14'1212.2
2015-Jun-03 04:31N 43°47' W 005°31'1212.4
2015-Jun-03 03:34N 43°48' W 005°47'1312.1
2015-Jun-03 02:28N 43°48' W 006°05'  

Dump ship's entire track history